Vila Isabel Airstrip

BR-0044 · 戈亚斯州, 巴西

METAR BR-0044 · Vila Isabel Airstrip

28 二月 10:00 LT
20m
使用的METAR站距离机场354 km。
罗盘
风向 的 Vila Isabel Airstrip 5/23
风: 0 kt, 0 beaufort


改变
0 ft 1.000 2.000 3.000 4.000 5.000
CAVOK
METAR SBBW 281300Z 00000KT CAVOK 31/23 Q1016

METAR Vila Isabel Airstrip - BR-0044

Vila Isabel Airstrip是,巴西中的小机场。 该机场位于纬度-13,21218和经度-50,56563。 该机场有一条跑道: 5/23. 这个机场没有ICAO代码,我们使用BR-0044作为参考。 机场在Brasilia FIR中。

该航空气象观测是针对Barra do Garças Airport在2024年2月28日 09:00, 当地时间进行的。

机场观察

可变方向的风很小或没有风。

天气为CAVOK。这意味着在5.000 ft或MSA(最低安全高度)以下(以较高者为准)以下没有云。这也意味着没有观测到积雨云或高耸的积云,可见度为10 km 或者更多或更高。此外,不会有雾,降雨或其他重要天气。

温度和风寒是31 °C。 热指数为36。 露点为23 °C,相对湿度为62%。 海平面上的气压为1016 hPa (QNH)。

白天

今天,太阳从06:23升起,在18:45降落。 这适用于Vila Isabel Airstrip,世界夏令时可能有所不同。 当地时间与世界标准时间之间的时差为-3 小时。 当前,没有夏令时有效。

公司介绍

我们没有关于这个机场的公司信息。

体会

到Vliegles.nl去找飞行课程,跳伞和其他飞行体验。 浏览页面,了解Vila Isabel Airstrip附近所有可用的活动。 你也可以使用搜索功能来寻找你所在地附近的特定飞行课程、跳伞或其他飞行体验。

跑道

Id 标题 侧风 逆风 侧风 %
5/23 032°-212°

逆风成分最大的方向会被突出显示,并用于横风计算。 这并不一定意味着这个方向在使用。

温度 & 天气

温度 31 °C
露点 23 °C
相对湿度 62%
热度指数 36 °C
Kp-index 0 (0-9)

白天

日出
06:29
中午
12:42
日落
18:54 (8:34)

小工具

你想在你的网站上有一个关于Vila Isabel Airstrip的当前航空天气(METAR)的小部件吗?

显示HTML代码
?>